createdAt,value
2019-03-16T00:00:27.576Z,958.02
2019-03-16T00:01:37.607Z,958.02
2019-03-16T00:02:59.856Z,958.06
2019-03-16T00:04:09.773Z,958.07
2019-03-16T00:05:19.748Z,958.08
2019-03-16T00:06:29.667Z,958.11
2019-03-16T00:07:39.590Z,958.15
2019-03-16T00:08:49.257Z,958.13
2019-03-16T00:09:59.277Z,958.16
2019-03-16T00:11:09.206Z,958.22
2019-03-16T00:12:19.123Z,958.22
2019-03-16T00:13:29.060Z,958.23
2019-03-16T00:14:38.984Z,958.23
2019-03-16T00:15:48.747Z,958.23
2019-03-16T00:16:58.767Z,958.21
2019-03-16T00:18:08.687Z,958.24
2019-03-16T00:19:18.609Z,958.2
2019-03-16T00:20:28.556Z,958.21
2019-03-16T00:21:38.319Z,958.24
2019-03-16T00:22:48.247Z,958.27
2019-03-16T00:23:58.198Z,958.24
2019-03-16T00:25:08.113Z,958.27
2019-03-16T00:26:18.053Z,958.26
2019-03-16T00:27:28.066Z,958.26
2019-03-16T00:28:37.994Z,958.25
2019-03-16T00:29:47.909Z,958.26
2019-03-16T00:30:57.821Z,958.24
2019-03-16T00:32:13.107Z,958.24
2019-03-16T00:33:23.742Z,958.26
2019-03-16T00:34:33.675Z,958.28
2019-03-16T00:35:43.594Z,958.34
2019-03-16T00:36:53.515Z,958.33
2019-03-16T00:38:03.447Z,958.38
2019-03-16T00:39:13.458Z,958.35
2019-03-16T00:40:23.388Z,958.41
2019-03-16T00:41:33.314Z,958.42
2019-03-16T00:42:43.245Z,958.46
2019-03-16T00:43:53.168Z,958.48
2019-03-16T00:45:03.107Z,958.44
2019-03-16T00:46:13.051Z,958.51
2019-03-16T00:47:22.969Z,958.49
2019-03-16T00:48:32.893Z,958.51
2019-03-16T00:49:42.833Z,958.44
2019-03-16T00:50:52.845Z,958.49
2019-03-16T00:52:02.760Z,958.52
2019-03-16T00:53:12.685Z,958.51
2019-03-16T00:54:22.605Z,958.55
2019-03-16T00:55:32.519Z,958.48
2019-03-16T00:56:42.435Z,958.55
2019-03-16T00:57:52.353Z,958.48
2019-03-16T00:59:02.271Z,958.5
2019-03-16T01:00:12.185Z,958.47
2019-03-16T01:01:22.102Z,958.47
2019-03-16T01:02:32.936Z,958.49
2019-03-16T01:03:43.072Z,958.54
2019-03-16T01:04:52.990Z,958.56
2019-03-16T01:06:03.298Z,958.55
2019-03-16T01:07:13.215Z,958.58
2019-03-16T01:08:23.155Z,958.6
2019-03-16T01:09:32.837Z,958.6
2019-03-16T01:10:44.266Z,958.6
2019-03-16T01:11:54.207Z,958.57
2019-03-16T01:13:04.147Z,958.6
2019-03-16T01:14:14.075Z,958.61
2019-03-16T01:15:23.994Z,958.64
2019-03-16T01:16:33.909Z,958.65
2019-03-16T01:17:43.571Z,958.65
2019-03-16T01:18:53.487Z,958.63
2019-03-16T01:20:03.527Z,958.65
2019-03-16T01:21:13.445Z,958.63
2019-03-16T01:22:23.414Z,958.64
2019-03-16T01:23:33.076Z,958.61
2019-03-16T01:24:42.991Z,958.63
2019-03-16T01:25:53.036Z,958.65
2019-03-16T01:27:02.702Z,958.62
2019-03-16T01:28:12.372Z,958.65
2019-03-16T01:29:22.291Z,958.65
2019-03-16T01:30:32.203Z,958.69
2019-03-16T01:31:42.174Z,958.73
2019-03-16T01:32:52.087Z,958.73
2019-03-16T01:34:01.764Z,958.73
2019-03-16T01:35:11.779Z,958.77
2019-03-16T01:36:21.701Z,958.76
2019-03-16T01:37:31.360Z,958.7
2019-03-16T01:38:41.291Z,958.73
2019-03-16T01:39:51.210Z,958.71
2019-03-16T01:41:01.151Z,958.69
2019-03-16T01:42:11.068Z,958.68
2019-03-16T01:43:20.841Z,958.73
2019-03-16T01:44:30.792Z,958.77
2019-03-16T01:45:40.710Z,958.75
2019-03-16T01:46:50.635Z,958.79
2019-03-16T01:48:00.552Z,958.81
2019-03-16T01:49:10.591Z,958.77
2019-03-16T01:50:21.747Z,958.77
2019-03-16T01:51:31.831Z,958.81
2019-03-16T01:52:41.806Z,958.81
2019-03-16T01:53:51.718Z,958.81
2019-03-16T01:55:01.633Z,958.8
2019-03-16T01:56:11.562Z,958.79
2019-03-16T01:57:21.474Z,958.78
2019-03-16T01:58:31.395Z,958.82
2019-03-16T01:59:41.311Z,958.8
2019-03-16T02:00:51.282Z,958.8
2019-03-16T02:02:01.246Z,958.83
2019-03-16T02:03:11.161Z,958.81
2019-03-16T02:04:21.085Z,958.82
2019-03-16T02:05:31.004Z,958.86
2019-03-16T02:06:40.920Z,958.84
2019-03-16T02:07:50.586Z,958.89
2019-03-16T02:09:00.523Z,958.92
2019-03-16T02:10:10.440Z,958.95
2019-03-16T02:11:20.365Z,958.98
2019-03-16T02:12:30.438Z,959.01
2019-03-16T02:13:40.356Z,958.98
2019-03-16T02:14:50.278Z,959.01
2019-03-16T02:16:10.192Z,959.01
2019-03-16T02:17:20.336Z,959.03
2019-03-16T02:18:30.346Z,959
2019-03-16T02:19:40.265Z,959.06
2019-03-16T02:20:50.192Z,959.04
2019-03-16T02:22:00.119Z,959.08
2019-03-16T02:23:10.051Z,959.06
2019-03-16T02:24:20.026Z,959.11
2019-03-16T02:25:29.942Z,959.12
2019-03-16T02:26:39.858Z,959.11
2019-03-16T02:27:49.786Z,959.11
2019-03-16T02:28:59.835Z,959.17
2019-03-16T02:30:09.851Z,959.16
2019-03-16T02:31:19.775Z,959.16
2019-03-16T02:32:29.714Z,959.2
2019-03-16T02:33:39.493Z,959.21
2019-03-16T02:34:49.420Z,959.24
2019-03-16T02:35:59.210Z,959.27
2019-03-16T02:37:08.640Z,959.27
2019-03-16T02:38:18.360Z,959.28
2019-03-16T02:39:28.294Z,959.3
2019-03-16T02:40:38.243Z,959.3
2019-03-16T02:41:48.268Z,959.32
2019-03-16T02:42:58.221Z,959.32
2019-03-16T02:44:11.255Z,959.33
2019-03-16T02:45:21.449Z,959.31
2019-03-16T02:46:31.372Z,959.3
2019-03-16T02:47:41.473Z,959.29
2019-03-16T02:48:51.167Z,959.32
2019-03-16T02:50:00.950Z,959.33
2019-03-16T02:51:10.939Z,959.31
2019-03-16T02:52:20.873Z,959.38
2019-03-16T02:53:30.897Z,959.39
2019-03-16T02:54:40.857Z,959.41
2019-03-16T02:55:50.836Z,959.43
2019-03-16T02:57:00.773Z,959.48
2019-03-16T02:58:10.463Z,959.48
2019-03-16T02:59:20.494Z,959.55
2019-03-16T03:00:30.430Z,959.56
2019-03-16T03:01:40.383Z,959.53
2019-03-16T03:02:50.403Z,959.51
2019-03-16T03:04:00.378Z,959.51
2019-03-16T03:05:10.428Z,959.47
2019-03-16T03:06:20.352Z,959.46
2019-03-16T03:07:30.282Z,959.48
2019-03-16T03:08:40.244Z,959.51
2019-03-16T03:09:50.182Z,959.54
2019-03-16T03:11:00.227Z,959.51
2019-03-16T03:12:10.154Z,959.54
2019-03-16T03:13:20.092Z,959.54
2019-03-16T03:14:30.031Z,959.57
2019-03-16T03:15:39.985Z,959.55
2019-03-16T03:16:49.975Z,959.58
2019-03-16T03:17:59.981Z,959.57
2019-03-16T03:19:09.933Z,959.57
2019-03-16T03:20:19.994Z,959.59
2019-03-16T03:21:29.962Z,959.57
2019-03-16T03:22:40.007Z,959.61
2019-03-16T03:23:49.999Z,959.54
2019-03-16T03:24:59.935Z,959.59
2019-03-16T03:26:09.885Z,959.61
2019-03-16T03:27:19.877Z,959.6
2019-03-16T03:28:29.923Z,959.61
2019-03-16T03:29:39.865Z,959.63
2019-03-16T03:30:49.821Z,959.56
2019-03-16T03:31:59.810Z,959.6
2019-03-16T03:33:09.885Z,959.6
2019-03-16T03:34:19.857Z,959.63
2019-03-16T03:35:29.874Z,959.62
2019-03-16T03:36:39.805Z,959.63
2019-03-16T03:37:49.747Z,959.61
2019-03-16T03:38:59.687Z,959.63
2019-03-16T03:40:09.818Z,959.63
2019-03-16T03:41:19.551Z,959.66
2019-03-16T03:42:29.483Z,959.68
2019-03-16T03:43:39.413Z,959.66
2019-03-16T03:44:49.351Z,959.7
2019-03-16T03:45:59.349Z,959.68
2019-03-16T03:47:09.278Z,959.71
2019-03-16T03:48:19.232Z,959.74
2019-03-16T03:49:28.913Z,959.73
2019-03-16T03:50:38.869Z,959.75
2019-03-16T03:51:48.388Z,959.79
2019-03-16T03:52:58.316Z,959.77
2019-03-16T03:54:07.995Z,959.77
2019-03-16T03:55:17.952Z,959.82
2019-03-16T03:56:27.915Z,959.78
2019-03-16T03:57:37.869Z,959.88
2019-03-16T03:58:47.802Z,959.86
2019-03-16T03:59:57.730Z,959.79
2019-03-16T04:01:07.688Z,959.82
2019-03-16T04:02:17.612Z,959.83
2019-03-16T04:03:27.635Z,959.81
2019-03-16T04:04:37.595Z,959.84
2019-03-16T04:05:47.532Z,959.85
2019-03-16T04:06:57.458Z,959.86
2019-03-16T04:08:07.424Z,959.88
2019-03-16T04:09:17.368Z,959.92
2019-03-16T04:10:27.298Z,959.88
2019-03-16T04:11:37.222Z,959.93
2019-03-16T04:12:47.282Z,959.89
2019-03-16T04:13:57.251Z,959.9
2019-03-16T04:15:07.304Z,959.97
2019-03-16T04:16:17.283Z,959.93
2019-03-16T04:17:27.236Z,959.94
2019-03-16T04:18:37.180Z,959.95
2019-03-16T04:19:47.112Z,959.97
2019-03-16T04:20:56.787Z,959.99
2019-03-16T04:22:06.751Z,960.01
2019-03-16T04:23:16.689Z,960.03
2019-03-16T04:24:26.652Z,960.05
2019-03-16T04:25:36.389Z,960.04
2019-03-16T04:26:46.447Z,960.07
2019-03-16T04:27:56.388Z,960.08
2019-03-16T04:29:06.310Z,960.08
2019-03-16T04:30:16.239Z,960.1
2019-03-16T04:31:26.194Z,960.07
2019-03-16T04:32:36.261Z,960.1
2019-03-16T04:33:46.196Z,960.08
2019-03-16T04:34:56.119Z,960.1
2019-03-16T04:36:06.077Z,960.09
2019-03-16T04:37:16.078Z,960.12
2019-03-16T04:38:26.141Z,960.14
2019-03-16T04:39:36.062Z,960.14
2019-03-16T04:40:45.986Z,960.2
2019-03-16T04:41:55.908Z,960.16
2019-03-16T04:43:05.836Z,960.19
2019-03-16T04:44:15.753Z,960.16
2019-03-16T04:45:25.678Z,960.16
2019-03-16T04:46:35.618Z,960.18
2019-03-16T04:47:45.539Z,960.18
2019-03-16T04:48:55.461Z,960.22
2019-03-16T04:50:05.454Z,960.22
2019-03-16T04:51:15.377Z,960.2
2019-03-16T04:52:25.292Z,960.21
2019-03-16T04:53:35.207Z,960.22
2019-03-16T04:54:45.137Z,960.28
2019-03-16T04:55:55.114Z,960.31
2019-03-16T04:57:05.036Z,960.3
2019-03-16T04:58:14.965Z,960.32
2019-03-16T04:59:24.887Z,960.31
2019-03-16T05:00:34.825Z,960.34
2019-03-16T05:01:44.804Z,960.35
2019-03-16T05:02:54.728Z,960.37
2019-03-16T05:04:04.505Z,960.37
2019-03-16T05:05:14.424Z,960.41
2019-03-16T05:06:24.344Z,960.45
2019-03-16T05:07:34.370Z,960.49
2019-03-16T05:08:44.318Z,960.54
2019-03-16T05:09:54.239Z,960.52
2019-03-16T05:11:07.441Z,960.58
2019-03-16T05:12:17.358Z,960.57
2019-03-16T05:13:27.342Z,960.61
2019-03-16T05:14:37.022Z,960.61
2019-03-16T05:15:46.951Z,960.64
2019-03-16T05:16:58.549Z,960.6
2019-03-16T05:18:08.465Z,960.6
2019-03-16T05:19:18.382Z,960.6
2019-03-16T05:20:28.319Z,960.58
2019-03-16T05:21:38.315Z,960.58
2019-03-16T05:22:48.227Z,960.62
2019-03-16T05:23:58.140Z,960.61
2019-03-16T05:25:10.576Z,960.63
2019-03-16T05:26:20.547Z,960.62
2019-03-16T05:27:30.482Z,960.66
2019-03-16T05:28:40.401Z,960.7
2019-03-16T05:29:50.324Z,960.72
2019-03-16T05:31:00.337Z,960.74
2019-03-16T05:32:10.255Z,960.73
2019-03-16T05:33:20.180Z,960.77
2019-03-16T05:34:30.235Z,960.76
2019-03-16T05:35:40.164Z,960.79
2019-03-16T05:36:50.184Z,960.74
2019-03-16T05:38:03.721Z,960.77
2019-03-16T05:39:13.393Z,960.79
2019-03-16T05:40:23.313Z,960.81
2019-03-16T05:41:33.248Z,960.86
2019-03-16T05:42:43.310Z,960.91
2019-03-16T05:43:53.250Z,960.92
2019-03-16T05:45:03.187Z,960.92
2019-03-16T05:46:13.114Z,960.96
2019-03-16T05:47:23.087Z,961
2019-03-16T05:48:33.107Z,960.94
2019-03-16T05:49:43.075Z,960.93
2019-03-16T05:50:52.995Z,960.99
2019-03-16T05:52:05.151Z,961
2019-03-16T05:53:15.072Z,960.99
2019-03-16T05:54:25.082Z,960.98
2019-03-16T05:55:35.022Z,961.01
2019-03-16T05:56:44.720Z,961.06
2019-03-16T05:57:54.664Z,961.04
2019-03-16T05:59:04.578Z,961.05
2019-03-16T06:00:14.602Z,961.11
2019-03-16T06:01:24.520Z,961.12
2019-03-16T06:02:34.449Z,961.15
2019-03-16T06:03:44.409Z,961.15
2019-03-16T06:04:54.326Z,961.22
2019-03-16T06:06:17.465Z,961.25
2019-03-16T06:07:30.162Z,961.27
2019-03-16T06:08:40.197Z,961.27
2019-03-16T06:09:50.116Z,961.24
2019-03-16T06:11:00.030Z,961.28
2019-03-16T06:12:09.950Z,961.26
2019-03-16T06:13:19.611Z,961.24
2019-03-16T06:14:29.530Z,961.26
2019-03-16T06:15:39.447Z,961.26
2019-03-16T06:16:49.438Z,961.28
2019-03-16T06:17:59.355Z,961.33
2019-03-16T06:19:09.273Z,961.3
2019-03-16T06:20:19.197Z,961.33
2019-03-16T06:21:29.114Z,961.35
2019-03-16T06:22:39.081Z,961.35
2019-03-16T06:23:49.008Z,961.35
2019-03-16T06:24:58.930Z,961.37
2019-03-16T06:26:08.992Z,961.4
2019-03-16T06:27:18.923Z,961.4
2019-03-16T06:28:28.895Z,961.4
2019-03-16T06:29:38.812Z,961.41
2019-03-16T06:30:48.725Z,961.4
2019-03-16T06:31:58.640Z,961.38
2019-03-16T06:33:08.562Z,961.42
2019-03-16T06:34:18.581Z,961.4
2019-03-16T06:35:29.460Z,961.43
2019-03-16T06:36:39.487Z,961.42
2019-03-16T06:37:49.402Z,961.47
2019-03-16T06:38:59.317Z,961.46
2019-03-16T06:40:09.344Z,961.51
2019-03-16T06:41:19.280Z,961.56
2019-03-16T06:42:29.201Z,961.57
2019-03-16T06:43:39.118Z,961.57
2019-03-16T06:44:49.040Z,961.59
2019-03-16T06:45:59.010Z,961.61
2019-03-16T06:47:08.924Z,961.58
2019-03-16T06:48:18.841Z,961.61
2019-03-16T06:49:28.762Z,961.61
2019-03-16T06:50:38.679Z,961.61
2019-03-16T06:51:48.650Z,961.62
2019-03-16T06:52:58.564Z,961.67
2019-03-16T06:54:08.498Z,961.64
2019-03-16T06:55:18.486Z,961.67
2019-03-16T06:56:28.399Z,961.68
2019-03-16T06:57:38.366Z,961.73
2019-03-16T06:58:48.045Z,961.73
2019-03-16T07:00:01.373Z,961.74
2019-03-16T07:01:11.318Z,961.76
2019-03-16T07:02:21.294Z,961.73
2019-03-16T07:03:31.330Z,961.75
2019-03-16T07:04:41.251Z,961.72
2019-03-16T07:05:51.174Z,961.74
2019-03-16T07:07:01.116Z,961.76
2019-03-16T07:08:11.039Z,961.79
2019-03-16T07:09:21.011Z,961.8
2019-03-16T07:10:30.973Z,961.8
2019-03-16T07:11:40.895Z,961.79
2019-03-16T07:12:50.813Z,961.84
2019-03-16T07:14:00.741Z,961.83
2019-03-16T07:15:10.664Z,961.86
2019-03-16T07:16:20.622Z,961.89
2019-03-16T07:17:30.614Z,961.9
2019-03-16T07:18:40.559Z,961.88
2019-03-16T07:20:03.482Z,961.94
2019-03-16T07:21:13.553Z,961.88
2019-03-16T07:22:23.473Z,961.88
2019-03-16T07:23:33.496Z,961.89
2019-03-16T07:24:43.710Z,961.89
2019-03-16T07:25:56.928Z,961.88
2019-03-16T07:27:25.848Z,961.93
2019-03-16T07:28:36.297Z,961.91
2019-03-16T07:29:46.214Z,961.98
2019-03-16T07:30:55.886Z,961.96
2019-03-16T07:32:05.854Z,961.99
2019-03-16T07:33:15.771Z,962.03
2019-03-16T07:34:25.690Z,962.03
2019-03-16T07:35:35.614Z,962.04
2019-03-16T07:36:45.629Z,962.07
2019-03-16T07:37:55.566Z,962.1
2019-03-16T07:39:05.485Z,962.13
2019-03-16T07:40:15.406Z,962.09
2019-03-16T07:41:25.323Z,962.07
2019-03-16T07:42:35.293Z,962.06
2019-03-16T07:43:45.217Z,962.09
2019-03-16T07:45:07.442Z,962.05
2019-03-16T07:46:17.565Z,962.05
2019-03-16T07:47:27.485Z,962.08
2019-03-16T07:48:37.453Z,962.08
2019-03-16T07:49:47.377Z,962.12
2019-03-16T07:50:57.307Z,962.13
2019-03-16T07:52:07.229Z,962.18
2019-03-16T07:53:17.248Z,962.19
2019-03-16T07:54:27.205Z,962.17
2019-03-16T07:55:41.909Z,962.19
2019-03-16T07:56:52.054Z,962.2
2019-03-16T07:58:01.973Z,962.2
2019-03-16T07:59:11.943Z,962.23
2019-03-16T08:00:21.863Z,962.27
2019-03-16T08:01:31.783Z,962.26
2019-03-16T08:02:41.701Z,962.29
2019-03-16T08:03:51.365Z,962.27
2019-03-16T08:05:01.344Z,962.31
2019-03-16T08:06:24.922Z,962.31
2019-03-16T08:07:36.370Z,962.36
2019-03-16T08:08:46.413Z,962.33
2019-03-16T08:09:56.347Z,962.33
2019-03-16T08:11:08.745Z,962.38
2019-03-16T08:12:18.668Z,962.36
2019-03-16T08:13:28.635Z,962.37
2019-03-16T08:14:38.571Z,962.43
2019-03-16T08:15:48.590Z,962.42
2019-03-16T08:16:58.515Z,962.44
2019-03-16T08:18:08.292Z,962.47
2019-03-16T08:19:18.224Z,962.48
2019-03-16T08:20:31.256Z,962.47
2019-03-16T08:21:41.672Z,962.47
2019-03-16T08:22:51.593Z,962.49
2019-03-16T08:24:01.525Z,962.42
2019-03-16T08:25:11.464Z,962.41
2019-03-16T08:26:21.388Z,962.43
2019-03-16T08:27:31.153Z,962.44
2019-03-16T08:28:54.070Z,962.42
2019-03-16T08:30:06.777Z,962.44
2019-03-16T08:31:16.717Z,962.46
2019-03-16T08:32:26.642Z,962.48
2019-03-16T08:33:36.561Z,962.47
2019-03-16T08:34:46.485Z,962.55
2019-03-16T08:35:56.406Z,962.54
2019-03-16T08:37:06.336Z,962.58
2019-03-16T08:38:16.316Z,962.57
2019-03-16T08:39:26.249Z,962.61
2019-03-16T08:40:35.920Z,962.63
2019-03-16T08:41:45.838Z,962.63
2019-03-16T08:42:55.771Z,962.68
2019-03-16T08:44:05.745Z,962.64
2019-03-16T08:45:15.667Z,962.69
2019-03-16T08:46:25.614Z,962.69
2019-03-16T08:47:35.540Z,962.73
2019-03-16T08:48:45.466Z,962.74
2019-03-16T08:49:55.490Z,962.83
2019-03-16T08:51:05.619Z,962.83
2019-03-16T08:52:15.541Z,962.87
2019-03-16T08:53:25.466Z,962.88
2019-03-16T08:54:35.447Z,962.92
2019-03-16T08:55:45.421Z,962.87
2019-03-16T08:56:55.202Z,962.92
2019-03-16T08:58:06.199Z,962.92
2019-03-16T08:59:16.380Z,962.91
2019-03-16T09:00:27.370Z,962.91
2019-03-16T09:01:37.394Z,962.93
2019-03-16T09:02:47.319Z,962.9
2019-03-16T09:03:57.244Z,962.93
2019-03-16T09:05:07.163Z,962.94
2019-03-16T09:06:17.095Z,962.95
2019-03-16T09:07:27.125Z,962.98
2019-03-16T09:08:37.064Z,962.99
2019-03-16T09:09:46.992Z,962.99
2019-03-16T09:10:56.916Z,963.02
2019-03-16T09:12:06.845Z,963.05
2019-03-16T09:13:16.884Z,963.08
2019-03-16T09:14:26.806Z,963.09
2019-03-16T09:15:36.733Z,963.15
2019-03-16T09:16:46.655Z,963.16
2019-03-16T09:17:56.573Z,963.2
2019-03-16T09:19:06.600Z,963.23
2019-03-16T09:20:16.535Z,963.2
2019-03-16T09:21:26.457Z,963.22
2019-03-16T09:22:36.410Z,963.19
2019-03-16T09:23:46.335Z,963.22
2019-03-16T09:24:56.446Z,963.2
2019-03-16T09:26:06.379Z,963.21
2019-03-16T09:27:16.316Z,963.18
2019-03-16T09:28:38.139Z,963.18
2019-03-16T09:30:00.118Z,963.22
2019-03-16T09:31:10.164Z,963.23
2019-03-16T09:32:19.851Z,963.26
2019-03-16T09:33:29.780Z,963.28
2019-03-16T09:34:39.713Z,963.31
2019-03-16T09:35:49.740Z,963.31
2019-03-16T09:36:59.411Z,963.36
2019-03-16T09:38:09.361Z,963.29
2019-03-16T09:39:19.288Z,963.33
2019-03-16T09:40:29.217Z,963.36
2019-03-16T09:41:39.150Z,963.35
2019-03-16T09:42:49.073Z,963.35
2019-03-16T09:44:01.792Z,963.39
2019-03-16T09:45:11.967Z,963.39
2019-03-16T09:46:21.891Z,963.43
2019-03-16T09:47:31.930Z,963.45
2019-03-16T09:48:41.859Z,963.45
2019-03-16T09:49:51.783Z,963.44
2019-03-16T09:51:01.731Z,963.41
2019-03-16T09:52:11.657Z,963.35
2019-03-16T09:53:21.688Z,963.31
2019-03-16T09:54:31.618Z,963.35
2019-03-16T09:55:41.538Z,963.37
2019-03-16T09:57:00.473Z,963.4
2019-03-16T09:58:11.080Z,963.41
2019-03-16T09:59:33.541Z,963.43
2019-03-16T10:00:43.471Z,963.38
2019-03-16T10:01:53.472Z,963.35
2019-03-16T10:03:03.397Z,963.35
2019-03-16T10:04:13.455Z,963.36
2019-03-16T10:05:23.376Z,963.36
2019-03-16T10:06:33.299Z,963.39
2019-03-16T10:07:43.230Z,963.42
2019-03-16T10:08:53.166Z,963.43
2019-03-16T10:10:03.137Z,963.38
2019-03-16T10:11:12.829Z,963.38
2019-03-16T10:12:22.767Z,963.41
2019-03-16T10:13:32.692Z,963.41
2019-03-16T10:14:42.615Z,963.43
2019-03-16T10:15:52.393Z,963.42
2019-03-16T10:17:02.318Z,963.43
2019-03-16T10:18:12.242Z,963.42
2019-03-16T10:19:22.165Z,963.41
2019-03-16T10:20:32.101Z,963.38
2019-03-16T10:21:42.025Z,963.37
2019-03-16T10:22:51.955Z,963.36
2019-03-16T10:24:01.890Z,963.38
2019-03-16T10:25:11.852Z,963.41
2019-03-16T10:26:21.788Z,963.44
2019-03-16T10:27:31.775Z,963.49
2019-03-16T10:28:43.781Z,963.5
2019-03-16T10:29:53.843Z,963.48
2019-03-16T10:31:03.520Z,963.48
2019-03-16T10:32:13.444Z,963.44
2019-03-16T10:33:23.420Z,963.46
2019-03-16T10:34:33.351Z,963.45
2019-03-16T10:35:43.282Z,963.46
2019-03-16T10:36:53.208Z,963.45
2019-03-16T10:38:03.135Z,963.5
2019-03-16T10:39:13.175Z,963.55
2019-03-16T10:40:23.100Z,963.53
2019-03-16T10:41:33.032Z,963.52
2019-03-16T10:42:42.968Z,963.56
2019-03-16T10:43:52.896Z,963.51
2019-03-16T10:45:02.932Z,963.53
2019-03-16T10:46:12.906Z,963.54
2019-03-16T10:47:22.851Z,963.54
2019-03-16T10:48:32.782Z,963.54
2019-03-16T10:49:42.768Z,963.53
2019-03-16T10:50:52.790Z,963.6
2019-03-16T10:52:02.714Z,963.63
2019-03-16T10:53:12.645Z,963.69
2019-03-16T10:54:22.572Z,963.69
2019-03-16T10:55:32.510Z,963.68
2019-03-16T10:56:42.546Z,963.69
2019-03-16T10:57:52.471Z,963.7
2019-03-16T10:59:02.405Z,963.72
2019-03-16T11:00:12.329Z,963.67
2019-03-16T11:01:22.268Z,963.69
2019-03-16T11:02:32.136Z,963.72
2019-03-16T11:03:42.068Z,963.72
2019-03-16T11:04:52.005Z,963.71
2019-03-16T11:06:01.927Z,963.67
2019-03-16T11:07:11.858Z,963.67
2019-03-16T11:08:21.888Z,963.69
2019-03-16T11:09:31.815Z,963.71
2019-03-16T11:10:41.759Z,963.73
2019-03-16T11:11:51.689Z,963.73
2019-03-16T11:13:01.622Z,963.74
2019-03-16T11:14:11.648Z,963.77
2019-03-16T11:15:21.571Z,963.78
2019-03-16T11:16:31.298Z,963.77
2019-03-16T11:17:41.222Z,963.78
2019-03-16T11:18:51.155Z,963.77
2019-03-16T11:20:01.189Z,963.74
2019-03-16T11:21:11.168Z,963.72
2019-03-16T11:22:21.095Z,963.74
2019-03-16T11:23:31.028Z,963.71
2019-03-16T11:24:40.953Z,963.7
2019-03-16T11:25:50.933Z,963.69
2019-03-16T11:27:00.859Z,963.67
2019-03-16T11:28:10.802Z,963.71
2019-03-16T11:29:20.729Z,963.72
2019-03-16T11:30:30.696Z,963.71
2019-03-16T11:31:40.754Z,963.69
2019-03-16T11:32:50.681Z,963.71
2019-03-16T11:34:00.614Z,963.72
2019-03-16T11:35:10.562Z,963.68
2019-03-16T11:36:20.506Z,963.69
2019-03-16T11:37:30.587Z,963.7
2019-03-16T11:38:40.520Z,963.69
2019-03-16T11:39:50.508Z,963.68
2019-03-16T11:41:00.644Z,963.7
2019-03-16T11:42:10.324Z,963.7
2019-03-16T11:43:20.110Z,963.72
2019-03-16T11:44:30.048Z,963.67
2019-03-16T11:45:39.978Z,963.71
2019-03-16T11:46:49.908Z,963.82
2019-03-16T11:47:59.842Z,963.78
2019-03-16T11:49:09.799Z,963.94
2019-03-16T11:50:19.734Z,963.95
2019-03-16T11:51:29.663Z,963.91
2019-03-16T11:52:39.604Z,963.8
2019-03-16T11:53:49.537Z,963.87
2019-03-16T11:54:59.565Z,963.98
2019-03-16T11:56:17.698Z,964.01
2019-03-16T11:57:27.957Z,964.02
2019-03-16T11:58:37.895Z,964.02
2019-03-16T11:59:47.828Z,964
2019-03-16T12:00:57.755Z,963.93
2019-03-16T12:02:07.687Z,963.92
2019-03-16T12:03:17.619Z,963.85
2019-03-16T12:04:27.565Z,963.96
2019-03-16T12:05:37.564Z,963.98
2019-03-16T12:06:47.547Z,963.88
2019-03-16T12:07:57.476Z,963.82
2019-03-16T12:09:07.474Z,963.73
2019-03-16T12:10:17.411Z,963.73
2019-03-16T12:11:27.365Z,963.66
2019-03-16T12:12:37.401Z,963.74
2019-03-16T12:13:47.370Z,963.72
2019-03-16T12:14:57.305Z,963.66
2019-03-16T12:16:07.319Z,963.71
2019-03-16T12:17:17.263Z,963.76
2019-03-16T12:18:27.355Z,963.79
2019-03-16T12:19:37.299Z,963.81
2019-03-16T12:20:47.232Z,963.91
2019-03-16T12:21:57.178Z,964.02
2019-03-16T12:23:07.109Z,964.09
2019-03-16T12:24:17.098Z,963.95
2019-03-16T12:25:27.034Z,964
2019-03-16T12:26:36.973Z,964.08
2019-03-16T12:27:46.922Z,964.07
2019-03-16T12:28:56.862Z,964.04
2019-03-16T12:30:06.900Z,963.99
2019-03-16T12:31:16.843Z,964.01
2019-03-16T12:32:26.782Z,963.78
2019-03-16T12:33:36.719Z,963.81
2019-03-16T12:34:46.671Z,963.75
2019-03-16T12:35:56.736Z,963.78
2019-03-16T12:37:06.674Z,963.85
2019-03-16T12:38:16.611Z,963.89
2019-03-16T12:39:26.579Z,963.87
2019-03-16T12:40:38.673Z,963.81
2019-03-16T12:41:48.767Z,963.91
2019-03-16T12:42:58.715Z,963.96
2019-03-16T12:44:08.661Z,963.98
2019-03-16T12:45:20.367Z,963.94
2019-03-16T12:46:30.803Z,964.04
2019-03-16T12:47:40.796Z,963.98
2019-03-16T12:48:50.734Z,964.19
2019-03-16T12:50:00.739Z,964.1
2019-03-16T12:51:10.765Z,964.15
2019-03-16T12:52:20.704Z,964.16
2019-03-16T12:53:30.738Z,964.14
2019-03-16T12:54:42.479Z,964.17
2019-03-16T12:55:52.475Z,964.23
2019-03-16T12:57:02.528Z,964.24
2019-03-16T12:58:12.469Z,964.19
2019-03-16T12:59:22.504Z,964.27
2019-03-16T13:00:32.450Z,964.22
2019-03-16T13:01:42.385Z,964.27
2019-03-16T13:02:52.515Z,964.3
2019-03-16T13:04:02.454Z,964.32
2019-03-16T13:05:12.519Z,964.31
2019-03-16T13:06:22.477Z,964.32
2019-03-16T13:07:32.422Z,964.31
2019-03-16T13:08:42.366Z,964.34
2019-03-16T13:09:52.442Z,964.3
2019-03-16T13:11:02.483Z,964.28
2019-03-16T13:12:12.181Z,964.2
2019-03-16T13:13:22.127Z,964.14
2019-03-16T13:14:32.071Z,964.08
2019-03-16T13:15:41.815Z,964.05
2019-03-16T13:16:51.960Z,964.03
2019-03-16T13:18:01.967Z,964.07
2019-03-16T13:19:12.506Z,964.28
2019-03-16T13:20:22.614Z,964.28
2019-03-16T13:21:32.551Z,964.2
2019-03-16T13:22:44.401Z,964.13
2019-03-16T13:23:54.531Z,964.16
2019-03-16T13:25:04.510Z,964.06
2019-03-16T13:26:14.456Z,964.04
2019-03-16T13:27:24.461Z,964.07
2019-03-16T13:28:35.684Z,964.05
2019-03-16T13:29:45.805Z,964.02
2019-03-16T13:31:06.523Z,964.21
2019-03-16T13:32:16.576Z,964.22
2019-03-16T13:33:26.549Z,964.2
2019-03-16T13:34:36.612Z,964.18
2019-03-16T13:35:46.566Z,964.05
2019-03-16T13:36:56.514Z,964
2019-03-16T13:38:06.458Z,964.07
2019-03-16T13:39:16.450Z,964.08
2019-03-16T13:40:28.098Z,964.03
2019-03-16T13:41:38.076Z,964.01
2019-03-16T13:42:48.017Z,963.98
2019-03-16T13:43:57.993Z,963.89
2019-03-16T13:45:08.058Z,963.91
2019-03-16T13:46:17.995Z,963.87
2019-03-16T13:47:27.947Z,963.9
2019-03-16T13:48:37.935Z,963.89
2019-03-16T13:49:47.914Z,963.93
2019-03-16T13:50:57.914Z,963.99
2019-03-16T13:52:07.857Z,963.87
2019-03-16T13:53:18.536Z,963.84
2019-03-16T13:54:29.315Z,963.85
2019-03-16T13:55:39.285Z,963.79
2019-03-16T13:56:49.298Z,963.88
2019-03-16T13:57:59.267Z,963.83
2019-03-16T13:59:09.231Z,963.86
2019-03-16T14:00:20.494Z,963.93
2019-03-16T14:01:30.728Z,963.9
2019-03-16T14:02:40.780Z,963.94
2019-03-16T14:03:50.494Z,963.94
2019-03-16T14:05:03.486Z,963.96
2019-03-16T14:06:14.913Z,963.99
2019-03-16T14:07:24.969Z,964.03
2019-03-16T14:08:34.920Z,963.79
2019-03-16T14:09:44.878Z,963.74
2019-03-16T14:10:54.847Z,963.76
2019-03-16T14:12:05.959Z,963.84
2019-03-16T14:13:16.320Z,963.75
2019-03-16T14:14:26.276Z,963.75
2019-03-16T14:15:36.243Z,963.79
2019-03-16T14:16:46.201Z,963.84
2019-03-16T14:17:58.036Z,963.88
2019-03-16T14:19:08.215Z,963.95
2019-03-16T14:20:19.170Z,963.89
2019-03-16T14:21:29.853Z,963.85
2019-03-16T14:22:39.568Z,963.87
2019-03-16T14:23:49.269Z,963.84
2019-03-16T14:24:59.229Z,963.9
2019-03-16T14:26:10.440Z,963.77
2019-03-16T14:27:20.383Z,963.79
2019-03-16T14:28:30.355Z,963.84
2019-03-16T14:29:40.702Z,963.74
2019-03-16T14:30:51.469Z,963.84
2019-03-16T14:32:02.126Z,963.82
2019-03-16T14:33:12.070Z,963.81
2019-03-16T14:34:22.034Z,963.8
2019-03-16T14:35:31.979Z,963.67
2019-03-16T14:36:41.936Z,963.66
2019-03-16T14:37:51.988Z,963.85
2019-03-16T14:39:02.363Z,963.79
2019-03-16T14:40:12.708Z,963.85